This is the latest recevied weather packets stored in our database for station/object KK7MLS-13. If no packets are shown the sender has not sent any weather packets the latest 10 day(s).
| Time | Temp. | Humidity | Pressure | Rain* | Wind** | Luminosity | Snow |
|---|---|---|---|---|---|---|---|
| 1788227568 | 27.22° C | 41% | 1007.7 hPa | 0 mm | - | 33 W/m² | - |
| 1788227267 | 27.78° C | 40% | 1007.6 hPa | 0 mm | - | 37 W/m² | - |
| 1788226963 | 27.78° C | 40% | 1007.7 hPa | 0 mm | - | 39 W/m² | - |
| 1788226658 | 28.33° C | 40% | 1007.6 hPa | 0 mm | - | 44 W/m² | - |
| 1788226354 | 28.89° C | 38% | 1007.6 hPa | 0 mm | - | 54 W/m² | - |
| 1788226049 | 28.89° C | 38% | 1007.5 hPa | 0 mm | - | 64 W/m² | - |
| 1788225749 | 28.33° C | 41% | 1007.6 hPa | 0 mm | - | 94 W/m² | - |
| 1788225445 | 28.33° C | 40% | 1007.5 hPa | 0 mm | - | 60 W/m² | - |
| 1788225140 | 28.33° C | 39% | 1007.7 hPa | 0 mm | - | 59 W/m² | - |
| 1788224834 | 28.89° C | 38% | 1007.6 hPa | 0 mm | - | 53 W/m² | - |
| 1788224529 | 30° C | 37% | 1007.6 hPa | 0 mm | - | 71 W/m² | - |
| 1788224228 | 32.22° C | 33% | 1007.6 hPa | 0 mm | - | 65 W/m² | - |
| 1788223924 | 32.22° C | 34% | 1007.6 hPa | 0 mm | - | 101 W/m² | - |
| 1788223624 | 32.22° C | 34% | 1007.6 hPa | 0 mm | - | 142 W/m² | - |
| 1788223318 | 31.67° C | 35% | 1007.7 hPa | 0 mm | - | 150 W/m² | - |
| 1788223017 | 31.11° C | 34% | 1007.7 hPa | 0 mm | - | 173 W/m² | - |
| 1788222712 | 30.56° C | 35% | 1007.8 hPa | 0 mm | - | 164 W/m² | - |
| 1788222411 | 31.11° C | 34% | 1007.8 hPa | 0 mm | - | 190 W/m² | - |
| 1788222124 | 31.67° C | 34% | 1007.8 hPa | 0 mm | - | 224 W/m² | - |
| 1788221802 | 32.22° C | 32% | 1007.6 hPa | 0 mm | - | 241 W/m² | - |
| 1788221497 | 32.78° C | 29% | 1007.6 hPa | 0 mm | - | 191 W/m² | - |
| 1788221192 | 33.33° C | 26% | 1007.6 hPa | 0 mm | - | 103 W/m² | - |
| 1788220888 | 32.78° C | 30% | 1007.8 hPa | 0 mm | - | 272 W/m² | - |
| 1788220587 | 32.78° C | 27% | 1007.8 hPa | 0 mm | - | 305 W/m² | - |
| 1788220282 | 32.78° C | 31% | 1007.8 hPa | 0 mm | - | 325 W/m² | - |
* Rain latest hour (hover to see other rain measurements)
** Current wind speed in m/s (hover to see current wind gust speed)